Terminal Aerodrome Forecast
Issued by NWS

Home | Current Version | Previous Version | Text Only | Print | Product List | Glossary On
Versions: 1 2 3 4 5 6 7 8 9 10 11 12 13 14 15
000
FTUS46 KHNX 221145
TAFMCE
TAF
KMCE 221145Z 2212/2312 33005KT P6SM SCT025 BKN040
     FM221500 31007KT 5SM HZ BKN050
     FM221900 32012G24KT 5SM HZ SCT050 BKN250
     FM230700 33007KT P6SM SCT250=

USA.gov is the U.S. government's official web portal to all federal, state and local government web resources and services.